aviador You're here:

KJXN Decoded Metar

JACKSON/REYNOLDS in MI, USA
Report Time2018-05-26 23:56:00
UTC Time2018-05-27 01:00:45
Flight Rules vfr VFR
Wind120° at 10 kt
W.Decomp.*RWY 14: 9.7 kt HW 2.6 kt LCW
RWY 06: 4.2 kt HW 9.1 kt RCW
W.Rank120° ranks 23
Current wind is above 120° avg. (6.8)
Visibility9999 m
Phenomena:N/A
Clouds:Overcast 060 Hf
Expected CloudBase > 2,400 ft AGL from Temp-Dew spread
Ceiling6,000 ft
Temp26°C (ISA +13)
Dew Point20°C (70% RH)
QNH1008 hPa
Density Alt2,982 ft
Elevation1,001 ft
Report Wrong Elevation
Raw Report
KJXN 262356Z 12010KT 10SM OVC060 26/20 A2978 RMK AO2 SLP077
T02560200 10289 20256 53003=

Extra information for KJXN:More info

Metar Taf Metar & Taf Last 4 Metars F.Rules Stats Wind Profile Meteogram Temp Stats Airport Information Weather charts Add Link Nearby VenuesMetar ALERT Operation Metar Decoded Social comments

AIRNAV info for KJXN